sensor_id;sensor_type;location;lat;lon;timestamp;P1;durP1;ratioP1;P2;durP2;ratioP2
16385;SDS011;8302;51.154;4.456;2023-11-19T00:01:45;0.20;;;0.20;;
16385;SDS011;8302;51.154;4.456;2023-11-19T00:04:14;0.52;;;0.52;;
16385;SDS011;8302;51.154;4.456;2023-11-19T00:06:42;1.15;;;0.93;;
16385;SDS011;8302;51.154;4.456;2023-11-19T00:09:09;0.30;;;0.30;;
16385;SDS011;8302;51.154;4.456;2023-11-19T00:11:38;0.80;;;0.68;;
16385;SDS011;8302;51.154;4.456;2023-11-19T00:14:05;1.88;;;0.60;;
16385;SDS011;8302;51.154;4.456;2023-11-19T00:16:36;0.40;;;0.40;;
16385;SDS011;8302;51.154;4.456;2023-11-19T00:19:04;0.63;;;0.50;;
16385;SDS011;8302;51.154;4.456;2023-11-19T00:21:32;0.47;;;0.47;;
16385;SDS011;8302;51.154;4.456;2023-11-19T00:23:59;1.63;;;0.43;;
16385;SDS011;8302;51.154;4.456;2023-11-19T00:26:27;0.85;;;0.30;;
16385;SDS011;8302;51.154;4.456;2023-11-19T00:28:56;0.68;;;0.52;;
16385;SDS011;8302;51.154;4.456;2023-11-19T00:31:25;0.50;;;0.50;;
16385;SDS011;8302;51.154;4.456;2023-11-19T00:33:55;0.50;;;0.50;;
16385;SDS011;8302;51.154;4.456;2023-11-19T00:36:23;1.92;;;0.47;;
16385;SDS011;8302;51.154;4.456;2023-11-19T00:38:51;0.68;;;0.68;;
16385;SDS011;8302;51.154;4.456;2023-11-19T00:41:19;0.95;;;0.57;;
16385;SDS011;8302;51.154;4.456;2023-11-19T00:43:47;0.70;;;0.50;;
16385;SDS011;8302;51.154;4.456;2023-11-19T00:46:15;0.50;;;0.50;;
16385;SDS011;8302;51.154;4.456;2023-11-19T00:48:43;0.65;;;0.52;;
16385;SDS011;8302;51.154;4.456;2023-11-19T00:51:15;0.93;;;0.60;;
16385;SDS011;8302;51.154;4.456;2023-11-19T00:53:42;0.77;;;0.70;;
16385;SDS011;8302;51.154;4.456;2023-11-19T00:56:10;0.65;;;0.63;;
16385;SDS011;8302;51.154;4.456;2023-11-19T00:58:38;1.05;;;0.52;;
16385;SDS011;8302;51.154;4.456;2023-11-19T01:01:06;1.05;;;0.50;;
16385;SDS011;8302;51.154;4.456;2023-11-19T01:03:34;1.77;;;0.73;;
16385;SDS011;8302;51.154;4.456;2023-11-19T01:06:02;0.32;;;0.32;;
16385;SDS011;8302;51.154;4.456;2023-11-19T01:08:31;0.30;;;0.30;;
16385;SDS011;8302;51.154;4.456;2023-11-19T01:10:59;2.80;;;0.50;;
16385;SDS011;8302;51.154;4.456;2023-11-19T01:13:26;1.55;;;0.70;;
16385;SDS011;8302;51.154;4.456;2023-11-19T01:15:54;1.27;;;0.65;;
16385;SDS011;8302;51.154;4.456;2023-11-19T01:18:23;1.30;;;0.73;;
16385;SDS011;8302;51.154;4.456;2023-11-19T01:20:51;0.50;;;0.50;;
16385;SDS011;8302;51.154;4.456;2023-11-19T01:23:18;2.58;;;1.10;;
16385;SDS011;8302;51.154;4.456;2023-11-19T01:25:47;2.22;;;0.70;;
16385;SDS011;8302;51.154;4.456;2023-11-19T01:28:15;0.85;;;0.45;;
16385;SDS011;8302;51.154;4.456;2023-11-19T01:30:43;1.20;;;0.77;;
16385;SDS011;8302;51.154;4.456;2023-11-19T01:33:10;0.98;;;0.70;;
16385;SDS011;8302;51.154;4.456;2023-11-19T01:35:38;0.95;;;0.70;;
16385;SDS011;8302;51.154;4.456;2023-11-19T01:38:05;1.40;;;0.82;;
16385;SDS011;8302;51.154;4.456;2023-11-19T01:40:35;1.35;;;0.45;;
16385;SDS011;8302;51.154;4.456;2023-11-19T01:43:04;1.30;;;0.50;;
16385;SDS011;8302;51.154;4.456;2023-11-19T01:45:31;0.75;;;0.50;;
16385;SDS011;8302;51.154;4.456;2023-11-19T01:48:02;0.85;;;0.40;;
16385;SDS011;8302;51.154;4.456;2023-11-19T01:50:30;0.82;;;0.60;;
16385;SDS011;8302;51.154;4.456;2023-11-19T01:52:58;0.90;;;0.50;;
16385;SDS011;8302;51.154;4.456;2023-11-19T01:55:25;2.60;;;0.60;;
16385;SDS011;8302;51.154;4.456;2023-11-19T01:57:54;2.17;;;0.80;;
16385;SDS011;8302;51.154;4.456;2023-11-19T02:00:24;5.47;;;0.95;;
16385;SDS011;8302;51.154;4.456;2023-11-19T02:02:51;2.88;;;1.00;;
16385;SDS011;8302;51.154;4.456;2023-11-19T02:05:21;2.17;;;1.00;;
16385;SDS011;8302;51.154;4.456;2023-11-19T02:07:49;1.90;;;0.80;;
16385;SDS011;8302;51.154;4.456;2023-11-19T02:10:17;0.80;;;0.63;;
16385;SDS011;8302;51.154;4.456;2023-11-19T02:12:45;1.75;;;0.98;;
16385;SDS011;8302;51.154;4.456;2023-11-19T02:15:13;0.98;;;0.57;;
16385;SDS011;8302;51.154;4.456;2023-11-19T02:17:42;0.40;;;0.40;;
16385;SDS011;8302;51.154;4.456;2023-11-19T02:20:11;1.00;;;0.82;;
16385;SDS011;8302;51.154;4.456;2023-11-19T02:22:41;0.95;;;0.80;;
16385;SDS011;8302;51.154;4.456;2023-11-19T02:25:11;3.22;;;0.98;;
16385;SDS011;8302;51.154;4.456;2023-11-19T02:27:43;2.83;;;0.60;;
16385;SDS011;8302;51.154;4.456;2023-11-19T02:30:12;0.68;;;0.57;;
16385;SDS011;8302;51.154;4.456;2023-11-19T02:32:41;2.40;;;0.60;;
16385;SDS011;8302;51.154;4.456;2023-11-19T02:35:08;1.80;;;0.77;;
16385;SDS011;8302;51.154;4.456;2023-11-19T02:37:37;1.02;;;0.60;;
16385;SDS011;8302;51.154;4.456;2023-11-19T02:40:06;2.25;;;0.70;;
16385;SDS011;8302;51.154;4.456;2023-11-19T02:42:36;1.27;;;0.60;;
16385;SDS011;8302;51.154;4.456;2023-11-19T02:45:05;1.88;;;0.77;;
16385;SDS011;8302;51.154;4.456;2023-11-19T02:47:33;2.78;;;0.90;;
16385;SDS011;8302;51.154;4.456;2023-11-19T02:50:02;1.00;;;0.80;;
16385;SDS011;8302;51.154;4.456;2023-11-19T02:52:30;1.40;;;0.68;;
16385;SDS011;8302;51.154;4.456;2023-11-19T02:55:01;3.22;;;1.02;;
16385;SDS011;8302;51.154;4.456;2023-11-19T02:57:30;0.70;;;0.57;;
16385;SDS011;8302;51.154;4.456;2023-11-19T02:59:58;0.70;;;0.70;;
16385;SDS011;8302;51.154;4.456;2023-11-19T03:02:27;0.52;;;0.50;;
16385;SDS011;8302;51.154;4.456;2023-11-19T03:05:00;3.08;;;0.60;;
16385;SDS011;8302;51.154;4.456;2023-11-19T03:07:29;1.95;;;0.73;;
16385;SDS011;8302;51.154;4.456;2023-11-19T03:09:56;1.40;;;0.52;;
16385;SDS011;8302;51.154;4.456;2023-11-19T03:12:24;4.30;;;1.02;;
16385;SDS011;8302;51.154;4.456;2023-11-19T03:14:52;1.88;;;0.85;;
16385;SDS011;8302;51.154;4.456;2023-11-19T03:17:21;1.42;;;0.90;;
16385;SDS011;8302;51.154;4.456;2023-11-19T03:19:52;2.85;;;0.75;;
16385;SDS011;8302;51.154;4.456;2023-11-19T03:22:20;0.95;;;0.70;;
16385;SDS011;8302;51.154;4.456;2023-11-19T03:24:50;1.95;;;0.77;;
16385;SDS011;8302;51.154;4.456;2023-11-19T03:27:18;4.85;;;0.90;;
16385;SDS011;8302;51.154;4.456;2023-11-19T03:29:45;0.68;;;0.68;;
16385;SDS011;8302;51.154;4.456;2023-11-19T03:32:13;2.15;;;1.00;;
16385;SDS011;8302;51.154;4.456;2023-11-19T03:34:41;1.45;;;1.00;;
16385;SDS011;8302;51.154;4.456;2023-11-19T03:37:10;1.65;;;0.60;;
16385;SDS011;8302;51.154;4.456;2023-11-19T03:39:39;1.80;;;0.70;;
16385;SDS011;8302;51.154;4.456;2023-11-19T03:42:06;1.48;;;0.63;;
16385;SDS011;8302;51.154;4.456;2023-11-19T03:44:34;1.90;;;0.85;;
16385;SDS011;8302;51.154;4.456;2023-11-19T03:47:02;1.77;;;1.00;;
16385;SDS011;8302;51.154;4.456;2023-11-19T03:49:30;3.08;;;0.82;;
16385;SDS011;8302;51.154;4.456;2023-11-19T03:51:58;0.95;;;0.70;;
16385;SDS011;8302;51.154;4.456;2023-11-19T03:54:28;1.75;;;0.88;;
16385;SDS011;8302;51.154;4.456;2023-11-19T03:56:56;3.53;;;1.08;;
16385;SDS011;8302;51.154;4.456;2023-11-19T03:59:24;1.67;;;0.77;;
16385;SDS011;8302;51.154;4.456;2023-11-19T04:01:51;0.60;;;0.60;;
16385;SDS011;8302;51.154;4.456;2023-11-19T04:04:20;5.03;;;1.13;;
16385;SDS011;8302;51.154;4.456;2023-11-19T04:06:48;2.03;;;1.38;;
16385;SDS011;8302;51.154;4.456;2023-11-19T04:09:15;4.65;;;1.20;;
16385;SDS011;8302;51.154;4.456;2023-11-19T04:11:45;3.70;;;1.02;;
16385;SDS011;8302;51.154;4.456;2023-11-19T04:14:13;3.10;;;1.20;;
16385;SDS011;8302;51.154;4.456;2023-11-19T04:16:41;4.03;;;1.38;;
16385;SDS011;8302;51.154;4.456;2023-11-19T04:19:09;3.00;;;1.27;;
16385;SDS011;8302;51.154;4.456;2023-11-19T04:21:39;3.92;;;1.00;;
16385;SDS011;8302;51.154;4.456;2023-11-19T04:24:07;4.47;;;0.80;;
16385;SDS011;8302;51.154;4.456;2023-11-19T04:26:35;3.35;;;0.80;;
16385;SDS011;8302;51.154;4.456;2023-11-19T04:29:04;3.50;;;0.88;;
16385;SDS011;8302;51.154;4.456;2023-11-19T04:31:32;0.60;;;0.60;;
16385;SDS011;8302;51.154;4.456;2023-11-19T04:34:00;2.08;;;1.00;;
16385;SDS011;8302;51.154;4.456;2023-11-19T04:36:27;3.22;;;1.40;;
16385;SDS011;8302;51.154;4.456;2023-11-19T04:38:56;3.97;;;0.80;;
16385;SDS011;8302;51.154;4.456;2023-11-19T04:41:23;3.65;;;1.20;;
16385;SDS011;8302;51.154;4.456;2023-11-19T04:43:51;2.25;;;0.80;;
16385;SDS011;8302;51.154;4.456;2023-11-19T04:46:20;3.03;;;0.82;;
16385;SDS011;8302;51.154;4.456;2023-11-19T04:48:48;2.17;;;1.20;;
16385;SDS011;8302;51.154;4.456;2023-11-19T04:51:15;2.97;;;0.75;;
16385;SDS011;8302;51.154;4.456;2023-11-19T04:53:43;4.97;;;1.00;;
16385;SDS011;8302;51.154;4.456;2023-11-19T04:56:11;1.77;;;0.90;;
16385;SDS011;8302;51.154;4.456;2023-11-19T04:58:39;2.85;;;0.82;;
16385;SDS011;8302;51.154;4.456;2023-11-19T05:01:12;2.75;;;0.82;;
16385;SDS011;8302;51.154;4.456;2023-11-19T05:03:42;3.10;;;1.15;;
16385;SDS011;8302;51.154;4.456;2023-11-19T05:06:09;2.97;;;1.13;;
16385;SDS011;8302;51.154;4.456;2023-11-19T05:08:37;3.15;;;1.10;;
16385;SDS011;8302;51.154;4.456;2023-11-19T05:11:05;8.07;;;1.20;;
16385;SDS011;8302;51.154;4.456;2023-11-19T05:13:33;5.53;;;1.38;;
16385;SDS011;8302;51.154;4.456;2023-11-19T05:16:01;5.35;;;1.30;;
16385;SDS011;8302;51.154;4.456;2023-11-19T05:18:28;1.73;;;0.90;;
16385;SDS011;8302;51.154;4.456;2023-11-19T05:20:57;1.92;;;1.25;;
16385;SDS011;8302;51.154;4.456;2023-11-19T05:23:25;3.95;;;1.15;;
16385;SDS011;8302;51.154;4.456;2023-11-19T05:25:53;5.10;;;1.52;;
16385;SDS011;8302;51.154;4.456;2023-11-19T05:28:21;1.48;;;0.90;;
16385;SDS011;8302;51.154;4.456;2023-11-19T05:30:51;3.35;;;1.48;;
16385;SDS011;8302;51.154;4.456;2023-11-19T05:33:18;2.33;;;0.95;;
16385;SDS011;8302;51.154;4.456;2023-11-19T05:35:46;4.13;;;1.23;;
16385;SDS011;8302;51.154;4.456;2023-11-19T05:38:15;6.07;;;1.00;;
16385;SDS011;8302;51.154;4.456;2023-11-19T05:40:43;1.35;;;0.70;;
16385;SDS011;8302;51.154;4.456;2023-11-19T05:43:10;1.27;;;0.85;;
16385;SDS011;8302;51.154;4.456;2023-11-19T05:45:38;4.78;;;1.08;;
16385;SDS011;8302;51.154;4.456;2023-11-19T05:48:06;2.10;;;1.10;;
16385;SDS011;8302;51.154;4.456;2023-11-19T05:50:35;1.20;;;0.70;;
16385;SDS011;8302;51.154;4.456;2023-11-19T05:53:02;1.77;;;1.10;;
16385;SDS011;8302;51.154;4.456;2023-11-19T05:55:34;3.20;;;1.33;;
16385;SDS011;8302;51.154;4.456;2023-11-19T05:58:02;3.22;;;1.20;;
16385;SDS011;8302;51.154;4.456;2023-11-19T06:00:33;4.93;;;0.98;;
16385;SDS011;8302;51.154;4.456;2023-11-19T06:03:02;2.17;;;0.90;;
16385;SDS011;8302;51.154;4.456;2023-11-19T06:05:31;2.47;;;0.93;;
16385;SDS011;8302;51.154;4.456;2023-11-19T06:07:58;5.43;;;1.00;;
16385;SDS011;8302;51.154;4.456;2023-11-19T06:10:26;2.85;;;0.80;;
16385;SDS011;8302;51.154;4.456;2023-11-19T06:12:59;3.00;;;1.13;;
16385;SDS011;8302;51.154;4.456;2023-11-19T06:15:27;3.72;;;1.40;;
16385;SDS011;8302;51.154;4.456;2023-11-19T06:17:54;2.88;;;1.20;;
16385;SDS011;8302;51.154;4.456;2023-11-19T06:20:23;5.57;;;1.05;;
16385;SDS011;8302;51.154;4.456;2023-11-19T06:22:51;6.72;;;1.27;;
16385;SDS011;8302;51.154;4.456;2023-11-19T06:25:19;2.53;;;0.95;;
16385;SDS011;8302;51.154;4.456;2023-11-19T06:27:46;6.25;;;1.80;;
16385;SDS011;8302;51.154;4.456;2023-11-19T06:30:16;2.22;;;1.05;;
16385;SDS011;8302;51.154;4.456;2023-11-19T06:32:43;3.03;;;1.17;;
16385;SDS011;8302;51.154;4.456;2023-11-19T06:35:11;1.85;;;0.88;;
16385;SDS011;8302;51.154;4.456;2023-11-19T06:37:40;4.40;;;1.05;;
16385;SDS011;8302;51.154;4.456;2023-11-19T06:40:08;6.13;;;0.93;;
16385;SDS011;8302;51.154;4.456;2023-11-19T06:42:36;5.82;;;1.27;;
16385;SDS011;8302;51.154;4.456;2023-11-19T06:45:05;5.53;;;1.10;;
16385;SDS011;8302;51.154;4.456;2023-11-19T06:47:34;3.58;;;1.13;;
16385;SDS011;8302;51.154;4.456;2023-11-19T06:50:01;2.40;;;1.30;;
16385;SDS011;8302;51.154;4.456;2023-11-19T06:52:32;1.52;;;0.75;;
16385;SDS011;8302;51.154;4.456;2023-11-19T06:54:59;2.97;;;1.13;;
16385;SDS011;8302;51.154;4.456;2023-11-19T06:57:30;3.15;;;1.20;;
16385;SDS011;8302;51.154;4.456;2023-11-19T06:59:58;4.55;;;1.42;;
16385;SDS011;8302;51.154;4.456;2023-11-19T07:02:26;1.17;;;0.57;;
16385;SDS011;8302;51.154;4.456;2023-11-19T07:04:56;1.38;;;0.82;;
16385;SDS011;8302;51.154;4.456;2023-11-19T07:07:23;4.55;;;0.82;;
16385;SDS011;8302;51.154;4.456;2023-11-19T07:09:51;2.25;;;1.15;;
16385;SDS011;8302;51.154;4.456;2023-11-19T07:12:19;2.75;;;1.13;;
16385;SDS011;8302;51.154;4.456;2023-11-19T07:14:46;2.28;;;0.85;;
16385;SDS011;8302;51.154;4.456;2023-11-19T07:17:14;5.35;;;1.23;;
16385;SDS011;8302;51.154;4.456;2023-11-19T07:19:42;3.88;;;1.90;;
16385;SDS011;8302;51.154;4.456;2023-11-19T07:22:11;3.60;;;1.30;;
16385;SDS011;8302;51.154;4.456;2023-11-19T07:24:39;2.95;;;1.10;;
16385;SDS011;8302;51.154;4.456;2023-11-19T07:27:07;5.95;;;1.20;;
16385;SDS011;8302;51.154;4.456;2023-11-19T07:29:35;3.05;;;1.02;;
16385;SDS011;8302;51.154;4.456;2023-11-19T07:32:05;4.90;;;1.17;;
16385;SDS011;8302;51.154;4.456;2023-11-19T07:34:33;4.13;;;1.13;;
16385;SDS011;8302;51.154;4.456;2023-11-19T07:37:01;2.25;;;1.10;;
16385;SDS011;8302;51.154;4.456;2023-11-19T07:39:30;4.05;;;1.00;;
16385;SDS011;8302;51.154;4.456;2023-11-19T07:41:59;3.83;;;1.20;;
16385;SDS011;8302;51.154;4.456;2023-11-19T07:44:26;4.53;;;1.02;;
16385;SDS011;8302;51.154;4.456;2023-11-19T07:46:54;2.67;;;0.90;;
16385;SDS011;8302;51.154;4.456;2023-11-19T07:49:22;5.13;;;1.75;;
16385;SDS011;8302;51.154;4.456;2023-11-19T07:51:49;2.85;;;1.13;;
16385;SDS011;8302;51.154;4.456;2023-11-19T07:54:18;5.47;;;1.17;;
16385;SDS011;8302;51.154;4.456;2023-11-19T07:56:49;2.92;;;0.95;;
16385;SDS011;8302;51.154;4.456;2023-11-19T07:59:17;7.55;;;1.42;;
16385;SDS011;8302;51.154;4.456;2023-11-19T08:01:44;1.80;;;1.02;;
16385;SDS011;8302;51.154;4.456;2023-11-19T08:04:12;9.02;;;2.50;;
16385;SDS011;8302;51.154;4.456;2023-11-19T08:06:40;5.70;;;1.52;;
16385;SDS011;8302;51.154;4.456;2023-11-19T08:09:08;7.30;;;1.85;;
16385;SDS011;8302;51.154;4.456;2023-11-19T08:11:40;6.47;;;2.25;;
16385;SDS011;8302;51.154;4.456;2023-11-19T08:14:09;6.72;;;2.55;;
16385;SDS011;8302;51.154;4.456;2023-11-19T08:16:37;8.43;;;2.35;;
16385;SDS011;8302;51.154;4.456;2023-11-19T08:19:06;8.15;;;2.85;;
16385;SDS011;8302;51.154;4.456;2023-11-19T08:21:35;11.43;;;3.10;;
16385;SDS011;8302;51.154;4.456;2023-11-19T08:24:03;8.18;;;2.72;;
16385;SDS011;8302;51.154;4.456;2023-11-19T08:26:30;8.63;;;2.60;;
16385;SDS011;8302;51.154;4.456;2023-11-19T08:28:58;11.65;;;3.42;;
16385;SDS011;8302;51.154;4.456;2023-11-19T08:31:27;6.15;;;1.98;;
16385;SDS011;8302;51.154;4.456;2023-11-19T08:33:55;12.15;;;3.10;;
16385;SDS011;8302;51.154;4.456;2023-11-19T08:36:22;10.98;;;3.28;;
16385;SDS011;8302;51.154;4.456;2023-11-19T08:38:50;8.43;;;2.42;;
16385;SDS011;8302;51.154;4.456;2023-11-19T08:41:18;8.15;;;2.80;;
16385;SDS011;8302;51.154;4.456;2023-11-19T08:43:46;8.57;;;1.85;;
16385;SDS011;8302;51.154;4.456;2023-11-19T08:46:13;14.48;;;2.17;;
16385;SDS011;8302;51.154;4.456;2023-11-19T08:48:42;9.52;;;2.00;;
16385;SDS011;8302;51.154;4.456;2023-11-19T08:51:10;6.57;;;2.80;;
16385;SDS011;8302;51.154;4.456;2023-11-19T08:53:38;9.10;;;2.85;;
16385;SDS011;8302;51.154;4.456;2023-11-19T08:56:05;8.88;;;1.95;;
16385;SDS011;8302;51.154;4.456;2023-11-19T08:58:34;7.35;;;2.40;;
16385;SDS011;8302;51.154;4.456;2023-11-19T09:01:02;9.70;;;3.38;;
16385;SDS011;8302;51.154;4.456;2023-11-19T09:03:31;9.18;;;2.53;;
16385;SDS011;8302;51.154;4.456;2023-11-19T09:06:01;5.18;;;1.70;;
16385;SDS011;8302;51.154;4.456;2023-11-19T09:08:29;9.13;;;2.85;;
16385;SDS011;8302;51.154;4.456;2023-11-19T09:10:56;11.52;;;3.13;;
16385;SDS011;8302;51.154;4.456;2023-11-19T09:13:24;10.77;;;3.55;;
16385;SDS011;8302;51.154;4.456;2023-11-19T09:15:52;10.07;;;3.03;;
16385;SDS011;8302;51.154;4.456;2023-11-19T09:18:19;10.05;;;3.45;;
16385;SDS011;8302;51.154;4.456;2023-11-19T09:20:47;8.80;;;3.35;;
16385;SDS011;8302;51.154;4.456;2023-11-19T09:23:16;12.50;;;3.22;;
16385;SDS011;8302;51.154;4.456;2023-11-19T09:25:44;8.85;;;3.00;;
16385;SDS011;8302;51.154;4.456;2023-11-19T09:28:12;8.13;;;3.42;;
16385;SDS011;8302;51.154;4.456;2023-11-19T09:30:40;9.32;;;3.42;;
16385;SDS011;8302;51.154;4.456;2023-11-19T09:33:08;13.38;;;4.20;;
16385;SDS011;8302;51.154;4.456;2023-11-19T09:35:36;8.38;;;3.50;;
16385;SDS011;8302;51.154;4.456;2023-11-19T09:38:04;12.82;;;3.45;;
16385;SDS011;8302;51.154;4.456;2023-11-19T09:40:33;10.70;;;3.72;;
16385;SDS011;8302;51.154;4.456;2023-11-19T09:43:01;7.45;;;3.13;;
16385;SDS011;8302;51.154;4.456;2023-11-19T09:45:29;8.15;;;3.28;;
16385;SDS011;8302;51.154;4.456;2023-11-19T09:48:00;7.78;;;2.95;;
16385;SDS011;8302;51.154;4.456;2023-11-19T09:50:29;7.43;;;2.75;;
16385;SDS011;8302;51.154;4.456;2023-11-19T09:52:58;7.32;;;3.40;;
16385;SDS011;8302;51.154;4.456;2023-11-19T09:55:26;8.88;;;2.88;;
16385;SDS011;8302;51.154;4.456;2023-11-19T09:57:55;7.32;;;3.17;;
16385;SDS011;8302;51.154;4.456;2023-11-19T10:00:26;8.38;;;2.72;;
16385;SDS011;8302;51.154;4.456;2023-11-19T10:02:54;7.78;;;3.13;;
16385;SDS011;8302;51.154;4.456;2023-11-19T10:05:23;10.45;;;2.88;;
16385;SDS011;8302;51.154;4.456;2023-11-19T10:07:52;8.65;;;3.20;;
16385;SDS011;8302;51.154;4.456;2023-11-19T10:10:22;11.50;;;3.17;;
16385;SDS011;8302;51.154;4.456;2023-11-19T10:12:50;8.85;;;2.92;;
16385;SDS011;8302;51.154;4.456;2023-11-19T10:15:23;7.63;;;2.72;;
16385;SDS011;8302;51.154;4.456;2023-11-19T10:17:51;6.95;;;2.90;;
16385;SDS011;8302;51.154;4.456;2023-11-19T10:20:19;7.13;;;2.17;;
16385;SDS011;8302;51.154;4.456;2023-11-19T10:22:46;8.90;;;3.00;;
16385;SDS011;8302;51.154;4.456;2023-11-19T10:25:24;7.55;;;2.95;;
16385;SDS011;8302;51.154;4.456;2023-11-19T10:27:52;9.48;;;2.40;;
16385;SDS011;8302;51.154;4.456;2023-11-19T10:30:20;7.78;;;2.83;;
16385;SDS011;8302;51.154;4.456;2023-11-19T10:33:02;7.05;;;2.88;;
16385;SDS011;8302;51.154;4.456;2023-11-19T10:35:30;7.43;;;2.97;;
16385;SDS011;8302;51.154;4.456;2023-11-19T10:37:59;8.13;;;2.53;;
16385;SDS011;8302;51.154;4.456;2023-11-19T10:40:37;7.10;;;2.70;;
16385;SDS011;8302;51.154;4.456;2023-11-19T10:43:05;6.55;;;2.83;;
16385;SDS011;8302;51.154;4.456;2023-11-19T10:45:34;6.97;;;2.45;;
16385;SDS011;8302;51.154;4.456;2023-11-19T10:48:03;7.22;;;2.58;;
16385;SDS011;8302;51.154;4.456;2023-11-19T10:50:33;8.88;;;2.47;;
16385;SDS011;8302;51.154;4.456;2023-11-19T10:53:02;7.88;;;2.20;;
16385;SDS011;8302;51.154;4.456;2023-11-19T10:55:30;6.40;;;2.72;;
16385;SDS011;8302;51.154;4.456;2023-11-19T10:57:59;7.25;;;3.17;;
16385;SDS011;8302;51.154;4.456;2023-11-19T11:00:28;11.30;;;2.78;;
16385;SDS011;8302;51.154;4.456;2023-11-19T11:02:59;6.70;;;2.53;;
16385;SDS011;8302;51.154;4.456;2023-11-19T11:05:29;10.38;;;2.47;;
16385;SDS011;8302;51.154;4.456;2023-11-19T11:08:00;6.80;;;2.58;;
16385;SDS011;8302;51.154;4.456;2023-11-19T11:10:28;7.72;;;3.38;;
16385;SDS011;8302;51.154;4.456;2023-11-19T11:12:55;9.43;;;3.00;;
16385;SDS011;8302;51.154;4.456;2023-11-19T11:15:25;10.30;;;3.38;;
16385;SDS011;8302;51.154;4.456;2023-11-19T11:17:54;10.68;;;2.90;;
16385;SDS011;8302;51.154;4.456;2023-11-19T11:20:23;8.35;;;2.70;;
16385;SDS011;8302;51.154;4.456;2023-11-19T11:22:54;9.98;;;3.35;;
16385;SDS011;8302;51.154;4.456;2023-11-19T11:25:28;11.23;;;2.70;;
16385;SDS011;8302;51.154;4.456;2023-11-19T11:28:15;7.28;;;2.95;;
16385;SDS011;8302;51.154;4.456;2023-11-19T11:30:47;8.32;;;3.55;;
16385;SDS011;8302;51.154;4.456;2023-11-19T11:33:29;11.60;;;3.63;;
16385;SDS011;8302;51.154;4.456;2023-11-19T11:36:04;6.65;;;3.08;;
16385;SDS011;8302;51.154;4.456;2023-11-19T11:38:37;10.23;;;3.33;;
16385;SDS011;8302;51.154;4.456;2023-11-19T11:41:15;14.27;;;3.83;;
16385;SDS011;8302;51.154;4.456;2023-11-19T11:43:46;10.57;;;4.05;;
16385;SDS011;8302;51.154;4.456;2023-11-19T11:49:02;13.55;;;4.20;;
16385;SDS011;8302;51.154;4.456;2023-11-19T11:54:25;11.57;;;4.57;;
16385;SDS011;8302;51.154;4.456;2023-11-19T11:57:08;11.18;;;4.53;;
16385;SDS011;8302;51.154;4.456;2023-11-19T11:59:43;12.52;;;5.03;;
16385;SDS011;8302;51.154;4.456;2023-11-19T12:02:11;12.98;;;4.38;;
16385;SDS011;8302;51.154;4.456;2023-11-19T12:04:39;11.98;;;4.82;;
16385;SDS011;8302;51.154;4.456;2023-11-19T12:07:08;10.63;;;4.00;;
16385;SDS011;8302;51.154;4.456;2023-11-19T12:09:38;14.95;;;4.45;;
16385;SDS011;8302;51.154;4.456;2023-11-19T12:12:11;12.43;;;4.57;;
16385;SDS011;8302;51.154;4.456;2023-11-19T12:17:35;12.15;;;4.38;;
16385;SDS011;8302;51.154;4.456;2023-11-19T12:20:05;12.65;;;4.25;;
16385;SDS011;8302;51.154;4.456;2023-11-19T12:22:35;9.98;;;3.60;;
16385;SDS011;8302;51.154;4.456;2023-11-19T12:25:04;7.40;;;3.78;;
16385;SDS011;8302;51.154;4.456;2023-11-19T12:27:32;9.45;;;4.15;;
16385;SDS011;8302;51.154;4.456;2023-11-19T12:30:01;12.10;;;4.18;;
16385;SDS011;8302;51.154;4.456;2023-11-19T12:32:37;8.40;;;3.13;;
16385;SDS011;8302;51.154;4.456;2023-11-19T12:35:06;8.38;;;3.38;;
16385;SDS011;8302;51.154;4.456;2023-11-19T12:37:43;9.90;;;3.58;;
16385;SDS011;8302;51.154;4.456;2023-11-19T12:40:13;8.85;;;4.20;;
16385;SDS011;8302;51.154;4.456;2023-11-19T12:42:41;8.68;;;4.22;;
16385;SDS011;8302;51.154;4.456;2023-11-19T12:45:09;8.32;;;3.75;;
16385;SDS011;8302;51.154;4.456;2023-11-19T12:47:38;6.95;;;3.88;;
16385;SDS011;8302;51.154;4.456;2023-11-19T12:50:07;6.85;;;3.00;;
16385;SDS011;8302;51.154;4.456;2023-11-19T12:52:35;9.30;;;3.35;;
16385;SDS011;8302;51.154;4.456;2023-11-19T12:55:04;8.98;;;4.00;;
16385;SDS011;8302;51.154;4.456;2023-11-19T12:57:37;5.13;;;2.72;;
16385;SDS011;8302;51.154;4.456;2023-11-19T13:00:05;8.00;;;3.80;;
16385;SDS011;8302;51.154;4.456;2023-11-19T13:02:46;7.97;;;3.58;;
16385;SDS011;8302;51.154;4.456;2023-11-19T13:05:24;6.45;;;3.28;;
16385;SDS011;8302;51.154;4.456;2023-11-19T13:07:59;7.13;;;2.88;;
16385;SDS011;8302;51.154;4.456;2023-11-19T13:10:27;7.15;;;3.53;;
16385;SDS011;8302;51.154;4.456;2023-11-19T13:13:03;7.50;;;3.30;;
16385;SDS011;8302;51.154;4.456;2023-11-19T13:15:30;4.50;;;2.85;;
16385;SDS011;8302;51.154;4.456;2023-11-19T13:17:58;9.55;;;3.70;;
16385;SDS011;8302;51.154;4.456;2023-11-19T13:20:26;6.05;;;3.25;;
16385;SDS011;8302;51.154;4.456;2023-11-19T13:22:55;6.40;;;2.85;;
16385;SDS011;8302;51.154;4.456;2023-11-19T13:25:22;6.32;;;3.00;;
16385;SDS011;8302;51.154;4.456;2023-11-19T13:27:50;7.68;;;3.33;;
16385;SDS011;8302;51.154;4.456;2023-11-19T13:30:19;5.95;;;2.60;;
16385;SDS011;8302;51.154;4.456;2023-11-19T13:32:51;6.38;;;2.58;;
16385;SDS011;8302;51.154;4.456;2023-11-19T13:35:21;5.15;;;2.80;;
16385;SDS011;8302;51.154;4.456;2023-11-19T13:37:48;7.60;;;2.97;;
16385;SDS011;8302;51.154;4.456;2023-11-19T13:40:18;5.40;;;2.42;;
16385;SDS011;8302;51.154;4.456;2023-11-19T13:42:46;6.60;;;2.80;;
16385;SDS011;8302;51.154;4.456;2023-11-19T13:45:14;4.45;;;2.70;;
16385;SDS011;8302;51.154;4.456;2023-11-19T13:47:45;6.45;;;3.15;;
16385;SDS011;8302;51.154;4.456;2023-11-19T13:50:13;10.52;;;3.20;;
16385;SDS011;8302;51.154;4.456;2023-11-19T13:52:41;6.00;;;2.88;;
16385;SDS011;8302;51.154;4.456;2023-11-19T13:55:09;7.43;;;3.40;;
16385;SDS011;8302;51.154;4.456;2023-11-19T13:57:37;5.72;;;2.83;;
16385;SDS011;8302;51.154;4.456;2023-11-19T14:00:06;7.63;;;3.08;;
16385;SDS011;8302;51.154;4.456;2023-11-19T14:02:37;7.25;;;3.55;;
16385;SDS011;8302;51.154;4.456;2023-11-19T14:05:05;7.50;;;3.13;;
16385;SDS011;8302;51.154;4.456;2023-11-19T14:07:33;7.45;;;3.70;;
16385;SDS011;8302;51.154;4.456;2023-11-19T14:10:01;8.80;;;3.10;;
16385;SDS011;8302;51.154;4.456;2023-11-19T14:12:29;6.53;;;3.20;;
16385;SDS011;8302;51.154;4.456;2023-11-19T14:14:57;6.45;;;3.22;;
16385;SDS011;8302;51.154;4.456;2023-11-19T14:17:24;5.68;;;2.83;;
16385;SDS011;8302;51.154;4.456;2023-11-19T14:19:52;7.05;;;3.70;;
16385;SDS011;8302;51.154;4.456;2023-11-19T14:22:21;8.68;;;3.35;;
16385;SDS011;8302;51.154;4.456;2023-11-19T14:24:49;6.38;;;3.30;;
16385;SDS011;8302;51.154;4.456;2023-11-19T14:27:16;7.10;;;3.50;;
16385;SDS011;8302;51.154;4.456;2023-11-19T14:29:44;5.90;;;3.25;;
16385;SDS011;8302;51.154;4.456;2023-11-19T14:32:12;7.22;;;3.25;;
16385;SDS011;8302;51.154;4.456;2023-11-19T14:34:39;4.13;;;2.67;;
16385;SDS011;8302;51.154;4.456;2023-11-19T14:37:07;7.20;;;3.15;;
16385;SDS011;8302;51.154;4.456;2023-11-19T14:39:36;6.40;;;3.20;;
16385;SDS011;8302;51.154;4.456;2023-11-19T14:42:04;7.75;;;3.22;;
16385;SDS011;8302;51.154;4.456;2023-11-19T14:44:32;8.05;;;3.30;;
16385;SDS011;8302;51.154;4.456;2023-11-19T14:47:00;6.30;;;3.03;;
16385;SDS011;8302;51.154;4.456;2023-11-19T14:49:28;5.47;;;2.92;;
16385;SDS011;8302;51.154;4.456;2023-11-19T14:51:56;7.00;;;3.72;;
16385;SDS011;8302;51.154;4.456;2023-11-19T14:54:44;5.03;;;2.70;;
16385;SDS011;8302;51.154;4.456;2023-11-19T14:57:12;5.18;;;2.85;;
16385;SDS011;8302;51.154;4.456;2023-11-19T14:59:40;5.03;;;2.78;;
16385;SDS011;8302;51.154;4.456;2023-11-19T15:02:08;5.45;;;3.03;;
16385;SDS011;8302;51.154;4.456;2023-11-19T15:04:37;5.25;;;2.85;;
16385;SDS011;8302;51.154;4.456;2023-11-19T15:07:04;8.10;;;2.95;;
16385;SDS011;8302;51.154;4.456;2023-11-19T15:09:32;6.40;;;2.63;;
16385;SDS011;8302;51.154;4.456;2023-11-19T15:12:05;4.60;;;2.45;;
16385;SDS011;8302;51.154;4.456;2023-11-19T15:14:32;5.70;;;2.70;;
16385;SDS011;8302;51.154;4.456;2023-11-19T15:17:00;6.18;;;2.63;;
16385;SDS011;8302;51.154;4.456;2023-11-19T15:19:28;4.85;;;2.60;;